createdAt,value
2023-05-15T00:02:09.308Z,100.00
2023-05-15T00:04:36.002Z,100.00
2023-05-15T00:07:02.766Z,100.00
2023-05-15T00:09:29.353Z,100.00
2023-05-15T00:11:56.048Z,100.00
2023-05-15T00:14:22.741Z,100.00
2023-05-15T00:16:49.417Z,100.00
2023-05-15T00:19:16.694Z,100.00
2023-05-15T00:21:43.307Z,100.00
2023-05-15T00:24:09.876Z,100.00
2023-05-15T00:26:37.069Z,100.00
2023-05-15T00:29:03.632Z,100.00
2023-05-15T00:31:30.271Z,100.00
2023-05-15T00:33:57.639Z,100.00
2023-05-15T00:36:25.989Z,100.00
2023-05-15T00:38:52.720Z,100.00
2023-05-15T00:41:22.536Z,100.00
2023-05-15T00:43:50.906Z,100.00
2023-05-15T00:46:17.697Z,100.00
2023-05-15T00:48:44.725Z,100.00
2023-05-15T00:51:12.223Z,100.00
2023-05-15T00:53:39.844Z,100.00
2023-05-15T00:56:09.357Z,100.00
2023-05-15T00:58:36.840Z,100.00
2023-05-15T01:01:04.209Z,100.00
2023-05-15T01:03:31.881Z,100.00
2023-05-15T01:05:58.465Z,100.00
2023-05-15T01:08:43.978Z,100.00
2023-05-15T01:11:12.929Z,100.00
2023-05-15T01:13:39.975Z,100.00
2023-05-15T01:16:07.949Z,100.00
2023-05-15T01:18:35.174Z,100.00
2023-05-15T01:21:01.925Z,100.00
2023-05-15T01:24:06.412Z,100.00
2023-05-15T01:29:30.940Z,100.00
2023-05-15T01:32:02.584Z,100.00
2023-05-15T01:34:34.566Z,100.00
2023-05-15T01:37:03.512Z,100.00
2023-05-15T01:39:33.818Z,100.00
2023-05-15T01:42:08.229Z,100.00
2023-05-15T01:44:38.196Z,100.00
2023-05-15T01:47:13.944Z,100.00
2023-05-15T01:49:43.038Z,100.00
2023-05-15T01:52:33.336Z,100.00
2023-05-15T01:55:02.031Z,100.00
2023-05-15T01:57:31.096Z,100.00
2023-05-15T01:59:58.899Z,100.00
2023-05-15T02:02:28.293Z,100.00
2023-05-15T02:04:56.313Z,100.00
2023-05-15T02:07:23.826Z,100.00
2023-05-15T02:09:52.783Z,100.00
2023-05-15T02:12:20.909Z,100.00
2023-05-15T02:14:49.767Z,100.00
2023-05-15T02:17:16.733Z,100.00
2023-05-15T02:19:43.235Z,100.00
2023-05-15T02:22:10.440Z,100.00
2023-05-15T02:24:36.952Z,100.00
2023-05-15T02:27:27.140Z,100.00
2023-05-15T02:30:12.276Z,100.00
2023-05-15T02:32:57.647Z,100.00
2023-05-15T02:35:32.484Z,100.00
2023-05-15T02:38:02.773Z,100.00
2023-05-15T02:40:31.661Z,100.00
2023-05-15T02:42:58.782Z,100.00
2023-05-15T02:45:26.369Z,100.00
2023-05-15T02:47:53.644Z,100.00
2023-05-15T02:50:20.781Z,100.00
2023-05-15T02:52:47.352Z,100.00
2023-05-15T02:55:13.978Z,100.00
2023-05-15T02:57:40.552Z,100.00
2023-05-15T03:00:09.315Z,100.00
2023-05-15T03:02:36.296Z,100.00
2023-05-15T03:05:02.999Z,100.00
2023-05-15T03:07:29.574Z,100.00
2023-05-15T03:09:56.282Z,100.00
2023-05-15T03:12:22.896Z,100.00
2023-05-15T03:14:49.534Z,100.00
2023-05-15T03:17:16.380Z,100.00
2023-05-15T03:19:43.255Z,100.00
2023-05-15T03:22:09.790Z,100.00
2023-05-15T03:24:36.384Z,100.00
2023-05-15T03:27:03.134Z,100.00
2023-05-15T03:29:29.815Z,100.00
2023-05-15T03:31:56.444Z,100.00
2023-05-15T03:34:23.243Z,100.00
2023-05-15T03:36:49.912Z,100.00
2023-05-15T03:39:16.445Z,100.00
2023-05-15T03:41:43.122Z,100.00
2023-05-15T03:44:09.682Z,100.00
2023-05-15T03:46:36.340Z,100.00
2023-05-15T03:49:03.028Z,100.00
2023-05-15T03:51:29.768Z,100.00
2023-05-15T03:53:56.531Z,100.00
2023-05-15T03:56:23.603Z,100.00
2023-05-15T03:58:50.194Z,100.00
2023-05-15T04:01:16.774Z,100.00
2023-05-15T04:03:43.440Z,100.00
2023-05-15T04:06:10.050Z,100.00
2023-05-15T04:08:36.628Z,100.00
2023-05-15T04:11:03.324Z,100.00
2023-05-15T04:13:29.881Z,100.00
2023-05-15T04:15:56.497Z,100.00
2023-05-15T04:18:23.131Z,100.00
2023-05-15T04:20:49.744Z,100.00
2023-05-15T04:23:16.454Z,100.00
2023-05-15T04:25:46.579Z,100.00
2023-05-15T04:28:14.226Z,100.00
2023-05-15T04:30:41.373Z,100.00
2023-05-15T04:33:08.479Z,100.00
2023-05-15T04:35:35.110Z,100.00
2023-05-15T04:38:02.019Z,100.00
2023-05-15T04:40:28.817Z,100.00
2023-05-15T04:42:55.507Z,100.00
2023-05-15T04:45:22.000Z,100.00
2023-05-15T04:47:48.633Z,100.00
2023-05-15T04:50:15.431Z,100.00
2023-05-15T04:52:43.246Z,100.00
2023-05-15T04:55:10.110Z,100.00
2023-05-15T04:57:36.676Z,100.00
2023-05-15T05:00:06.118Z,100.00
2023-05-15T05:02:32.736Z,100.00
2023-05-15T05:04:59.356Z,100.00
2023-05-15T05:07:25.910Z,100.00
2023-05-15T05:09:52.597Z,100.00
2023-05-15T05:12:19.153Z,100.00
2023-05-15T05:14:45.814Z,100.00
2023-05-15T05:17:12.533Z,100.00
2023-05-15T05:19:39.108Z,100.00
2023-05-15T05:22:06.106Z,100.00
2023-05-15T05:24:32.873Z,99.57
2023-05-15T05:27:00.355Z,98.18
2023-05-15T05:29:27.017Z,96.20
2023-05-15T05:31:53.867Z,94.07
2023-05-15T05:34:20.671Z,92.88
2023-05-15T05:36:47.336Z,92.08
2023-05-15T05:39:14.641Z,91.87
2023-05-15T05:41:41.366Z,91.38
2023-05-15T05:44:08.070Z,89.30
2023-05-15T05:46:34.919Z,87.07
2023-05-15T05:49:01.743Z,86.81
2023-05-15T05:51:28.347Z,85.85
2023-05-15T05:53:55.013Z,84.86
2023-05-15T05:56:22.949Z,82.63
2023-05-15T05:58:49.653Z,83.13
2023-05-15T06:01:16.576Z,81.51
2023-05-15T06:03:43.851Z,80.83
2023-05-15T06:06:10.750Z,79.88
2023-05-15T06:08:37.334Z,80.68
2023-05-15T06:11:05.599Z,80.57
2023-05-15T06:13:32.286Z,80.61
2023-05-15T06:15:58.870Z,80.63
2023-05-15T06:18:25.633Z,80.08
2023-05-15T06:20:53.542Z,79.91
2023-05-15T06:23:20.422Z,79.49
2023-05-15T06:25:47.938Z,78.09
2023-05-15T06:28:14.495Z,77.46
2023-05-15T06:30:41.090Z,76.40
2023-05-15T06:33:07.874Z,76.39
2023-05-15T06:35:34.631Z,75.13
2023-05-15T06:38:02.004Z,74.96
2023-05-15T06:40:28.724Z,72.29
2023-05-15T06:42:55.736Z,71.88
2023-05-15T06:45:22.682Z,71.65
2023-05-15T06:47:49.398Z,74.53
2023-05-15T06:50:16.155Z,74.85
2023-05-15T06:52:42.791Z,74.76
2023-05-15T06:55:09.564Z,74.24
2023-05-15T06:57:36.165Z,73.89
2023-05-15T07:00:02.786Z,73.27
2023-05-15T07:02:29.428Z,72.92
2023-05-15T07:04:56.444Z,71.92
2023-05-15T07:07:23.025Z,71.22
2023-05-15T07:09:50.457Z,72.45
2023-05-15T07:12:17.028Z,71.84
2023-05-15T07:14:43.586Z,72.04
2023-05-15T07:17:10.286Z,72.14
2023-05-15T07:19:37.043Z,71.31
2023-05-15T07:22:03.804Z,71.31
2023-05-15T07:24:30.810Z,71.84
2023-05-15T07:26:59.169Z,70.83
2023-05-15T07:29:26.502Z,69.59
2023-05-15T07:31:53.772Z,69.30
2023-05-15T07:34:20.947Z,69.08
2023-05-15T07:36:47.644Z,67.80
2023-05-15T07:39:14.326Z,69.14
2023-05-15T07:41:40.961Z,66.80
2023-05-15T07:44:07.784Z,65.22
2023-05-15T07:46:35.508Z,64.16
2023-05-15T07:49:02.307Z,63.87
2023-05-15T07:51:29.308Z,65.95
2023-05-15T07:53:55.977Z,64.60
2023-05-15T07:56:23.465Z,66.03
2023-05-15T07:58:50.066Z,65.67
2023-05-15T08:01:16.895Z,65.65
2023-05-15T08:03:44.364Z,64.41
2023-05-15T08:06:11.124Z,63.79
2023-05-15T08:08:37.795Z,62.06
2023-05-15T08:11:04.512Z,60.66
2023-05-15T08:13:31.143Z,59.74
2023-05-15T08:15:57.790Z,60.25
2023-05-15T08:18:24.441Z,59.35
2023-05-15T08:20:52.467Z,59.26
2023-05-15T08:23:19.196Z,58.87
2023-05-15T08:25:45.958Z,57.81
2023-05-15T08:28:12.700Z,58.91
2023-05-15T08:30:39.366Z,58.81
2023-05-15T08:33:06.124Z,59.06
2023-05-15T08:35:33.025Z,59.26
2023-05-15T08:37:59.741Z,57.65
2023-05-15T08:40:38.500Z,58.16
2023-05-15T08:43:17.690Z,57.11
2023-05-15T08:45:44.537Z,57.31
2023-05-15T08:48:14.495Z,56.05
2023-05-15T08:50:43.687Z,55.53
2023-05-15T08:53:14.200Z,56.68
2023-05-15T08:55:41.959Z,56.16
2023-05-15T08:58:10.024Z,55.61
2023-05-15T09:00:38.000Z,51.82
2023-05-15T09:03:05.970Z,52.33
2023-05-15T09:05:33.203Z,54.35
2023-05-15T09:08:04.325Z,53.10
2023-05-15T09:10:32.037Z,52.60
2023-05-15T09:13:02.001Z,50.59
2023-05-15T09:15:30.763Z,51.45
2023-05-15T09:17:58.480Z,50.98
2023-05-15T09:20:31.339Z,51.60
2023-05-15T09:23:00.061Z,50.76
2023-05-15T09:25:33.528Z,51.01
2023-05-15T09:28:01.974Z,50.41
2023-05-15T09:30:31.263Z,50.28
2023-05-15T09:33:04.267Z,50.47
2023-05-15T09:35:35.466Z,52.13
2023-05-15T09:38:06.189Z,50.78
2023-05-15T09:40:32.856Z,51.05
2023-05-15T09:43:00.495Z,48.81
2023-05-15T09:45:30.234Z,48.49
2023-05-15T09:48:00.946Z,46.73
2023-05-15T09:50:38.754Z,46.48
2023-05-15T09:53:05.967Z,47.94
2023-05-15T09:55:35.303Z,48.28
2023-05-15T09:58:06.926Z,48.24
2023-05-15T10:00:34.517Z,47.88
2023-05-15T10:03:03.545Z,51.36
2023-05-15T10:05:42.593Z,52.24
2023-05-15T10:08:09.982Z,55.43
2023-05-15T10:10:36.724Z,62.57
2023-05-15T10:13:05.914Z,71.90
2023-05-15T10:15:33.287Z,77.48
2023-05-15T10:18:00.786Z,75.85
2023-05-15T10:20:27.625Z,73.98
2023-05-15T10:22:56.618Z,73.95
2023-05-15T10:25:42.384Z,71.98
2023-05-15T10:28:10.977Z,72.90
2023-05-15T10:30:40.488Z,71.82
2023-05-15T10:33:08.268Z,70.14
2023-05-15T10:35:36.537Z,69.41
2023-05-15T10:38:05.647Z,67.18
2023-05-15T10:40:34.085Z,69.28
2023-05-15T10:43:03.765Z,68.08
2023-05-15T10:45:31.892Z,65.44
2023-05-15T10:48:02.131Z,65.37
2023-05-15T10:50:28.982Z,66.94
2023-05-15T10:52:56.177Z,65.45
2023-05-15T10:55:23.554Z,63.97
2023-05-15T10:57:50.619Z,61.76
2023-05-15T11:00:23.432Z,62.70
2023-05-15T11:02:53.964Z,63.67
2023-05-15T11:05:20.923Z,61.04
2023-05-15T11:08:15.637Z,58.64
2023-05-15T11:10:42.362Z,59.82
2023-05-15T11:13:09.176Z,58.64
2023-05-15T11:15:44.064Z,57.50
2023-05-15T11:18:10.871Z,56.50
2023-05-15T11:20:49.695Z,55.76
2023-05-15T11:23:16.526Z,57.45
2023-05-15T11:25:43.151Z,57.32
2023-05-15T11:28:22.395Z,58.99
2023-05-15T11:30:52.188Z,58.38
2023-05-15T11:33:20.882Z,57.07
2023-05-15T11:35:48.370Z,58.08
2023-05-15T11:38:24.615Z,55.44
2023-05-15T11:41:03.201Z,53.24
2023-05-15T11:43:35.407Z,53.11
2023-05-15T11:46:08.381Z,52.61
2023-05-15T11:48:41.054Z,52.29
2023-05-15T11:51:20.066Z,53.47
2023-05-15T11:53:47.186Z,54.46
2023-05-15T11:56:25.069Z,53.09
2023-05-15T11:58:57.229Z,51.52
2023-05-15T12:01:24.193Z,51.00
2023-05-15T12:03:52.449Z,51.43
2023-05-15T12:06:19.480Z,51.48
2023-05-15T12:08:52.503Z,52.39
2023-05-15T12:11:23.598Z,52.20
2023-05-15T12:13:54.691Z,53.36
2023-05-15T12:16:26.610Z,53.24
2023-05-15T12:18:53.846Z,53.81
2023-05-15T12:21:21.055Z,53.71
2023-05-15T12:24:07.165Z,55.17
2023-05-15T12:26:36.098Z,54.38
2023-05-15T12:29:04.012Z,53.33
2023-05-15T12:31:30.928Z,53.31
2023-05-15T12:33:57.845Z,53.77
2023-05-15T12:36:29.853Z,54.75
2023-05-15T12:38:57.181Z,55.09
2023-05-15T12:41:30.122Z,58.15
2023-05-15T12:43:56.716Z,57.83
2023-05-15T12:46:25.632Z,59.02
2023-05-15T12:48:52.377Z,60.74
2023-05-15T12:51:19.008Z,61.90
2023-05-15T12:53:48.004Z,62.54
2023-05-15T12:56:17.669Z,62.66
2023-05-15T12:58:44.445Z,62.86
2023-05-15T13:01:11.199Z,63.45
2023-05-15T13:03:38.664Z,64.25
2023-05-15T13:06:07.231Z,63.84
2023-05-15T13:08:40.596Z,62.98
2023-05-15T13:11:12.433Z,62.36
2023-05-15T13:13:49.724Z,61.03
2023-05-15T13:16:29.831Z,59.53
2023-05-15T13:19:00.598Z,58.45
2023-05-15T13:21:27.380Z,58.09
2023-05-15T13:23:54.187Z,57.23
2023-05-15T13:26:20.967Z,57.17
2023-05-15T13:28:47.627Z,55.74
2023-05-15T13:31:14.577Z,55.12
2023-05-15T13:33:41.898Z,56.11
2023-05-15T13:38:52.902Z,53.40
2023-05-15T13:41:19.507Z,54.67
2023-05-15T13:43:47.943Z,56.29
2023-05-15T13:46:14.669Z,56.75
2023-05-15T13:48:41.288Z,56.94
2023-05-15T13:51:07.967Z,55.63
2023-05-15T13:53:34.619Z,57.57
2023-05-15T13:56:01.365Z,58.41
2023-05-15T13:58:28.315Z,58.67
2023-05-15T14:00:55.034Z,59.70
2023-05-15T14:03:21.834Z,59.08
2023-05-15T14:05:48.437Z,58.76
2023-05-15T14:08:15.977Z,59.19
2023-05-15T14:10:42.592Z,59.23
2023-05-15T14:13:09.933Z,57.60
2023-05-15T14:15:36.726Z,58.09
2023-05-15T14:18:03.358Z,57.67
2023-05-15T14:20:30.466Z,57.59
2023-05-15T14:22:57.112Z,57.42
2023-05-15T14:25:24.580Z,57.53
2023-05-15T14:27:51.477Z,57.31
2023-05-15T14:30:18.763Z,57.00
2023-05-15T14:32:45.449Z,58.18
2023-05-15T14:35:12.127Z,59.42
2023-05-15T14:37:39.066Z,57.42
2023-05-15T14:40:07.067Z,57.31
2023-05-15T14:42:33.873Z,57.94
2023-05-15T14:45:00.562Z,59.79
2023-05-15T14:47:28.668Z,57.50
2023-05-15T14:49:55.691Z,57.54
2023-05-15T14:52:22.598Z,58.48
2023-05-15T14:55:00.693Z,59.31
2023-05-15T14:57:35.037Z,58.72
2023-05-15T15:00:02.005Z,59.39
2023-05-15T15:02:29.042Z,58.94
2023-05-15T15:04:55.983Z,58.58
2023-05-15T15:07:22.886Z,58.65
2023-05-15T15:09:49.721Z,58.28
2023-05-15T15:12:16.548Z,59.06
2023-05-15T15:14:43.185Z,59.23
2023-05-15T15:17:09.876Z,59.51
2023-05-15T15:19:36.537Z,59.25
2023-05-15T15:22:03.292Z,59.37
2023-05-15T15:24:30.146Z,59.00
2023-05-15T15:26:56.856Z,58.90
2023-05-15T15:29:23.554Z,58.72
2023-05-15T15:31:50.478Z,58.72
2023-05-15T15:34:17.291Z,59.67
2023-05-15T15:36:45.540Z,58.19
2023-05-15T15:39:13.233Z,58.27
2023-05-15T15:41:40.095Z,58.09
2023-05-15T15:44:06.896Z,58.39
2023-05-15T15:46:33.690Z,57.64
2023-05-15T15:49:00.570Z,57.48
2023-05-15T15:51:27.241Z,58.92
2023-05-15T15:53:54.027Z,58.96
2023-05-15T15:56:21.504Z,59.75
2023-05-15T15:58:48.195Z,59.86
2023-05-15T16:01:15.234Z,59.48
2023-05-15T16:03:44.872Z,60.58
2023-05-15T16:06:11.532Z,60.44
2023-05-15T16:08:38.208Z,60.67
2023-05-15T16:11:04.890Z,61.70
2023-05-15T16:13:31.547Z,63.04
2023-05-15T16:15:58.337Z,63.52
2023-05-15T16:18:25.104Z,63.72
2023-05-15T16:20:51.742Z,62.78
2023-05-15T16:23:19.928Z,63.25
2023-05-15T16:25:46.692Z,63.61
2023-05-15T16:28:13.886Z,63.51
2023-05-15T16:30:48.672Z,64.00
2023-05-15T16:33:17.803Z,63.40
2023-05-15T16:35:44.635Z,64.23
2023-05-15T16:38:11.531Z,64.84
2023-05-15T16:40:38.098Z,65.06
2023-05-15T16:43:05.129Z,65.04
2023-05-15T16:45:31.788Z,65.63
2023-05-15T16:47:58.421Z,65.59
2023-05-15T16:50:25.368Z,65.93
2023-05-15T16:52:52.134Z,66.03
2023-05-15T16:55:19.112Z,65.65
2023-05-15T16:57:46.795Z,65.25
2023-05-15T17:00:14.631Z,65.37
2023-05-15T17:02:44.470Z,66.03
2023-05-15T17:05:11.843Z,66.14
2023-05-15T17:07:38.910Z,66.70
2023-05-15T17:10:06.876Z,67.65
2023-05-15T17:12:34.384Z,66.91
2023-05-15T17:15:01.072Z,67.48
2023-05-15T17:17:28.294Z,67.23
2023-05-15T17:19:55.887Z,67.09
2023-05-15T17:22:23.196Z,67.22
2023-05-15T17:24:52.229Z,67.96
2023-05-15T17:27:19.515Z,68.31
2023-05-15T17:29:47.026Z,68.75
2023-05-15T17:32:14.020Z,69.15
2023-05-15T17:34:40.867Z,69.96
2023-05-15T17:37:08.793Z,71.00
2023-05-15T17:39:42.562Z,72.38
2023-05-15T17:42:09.439Z,73.91
2023-05-15T17:44:36.315Z,74.24
2023-05-15T17:47:02.970Z,74.54
2023-05-15T17:49:30.412Z,74.45
2023-05-15T17:51:57.335Z,76.50
2023-05-15T17:54:24.178Z,75.89
2023-05-15T17:56:50.813Z,75.84
2023-05-15T17:59:17.445Z,75.79
2023-05-15T18:01:44.482Z,74.86
2023-05-15T18:04:11.441Z,75.78
2023-05-15T18:06:38.342Z,76.37
2023-05-15T18:09:05.222Z,76.77
2023-05-15T18:11:32.174Z,76.35
2023-05-15T18:13:58.833Z,76.71
2023-05-15T18:16:25.807Z,77.61
2023-05-15T18:18:52.779Z,77.09
2023-05-15T18:21:19.460Z,76.75
2023-05-15T18:23:46.309Z,76.88
2023-05-15T18:26:13.040Z,77.57
2023-05-15T18:28:39.835Z,77.08
2023-05-15T18:31:06.805Z,77.44
2023-05-15T18:33:34.341Z,76.91
2023-05-15T18:36:01.205Z,77.94
2023-05-15T18:38:28.270Z,77.00
2023-05-15T18:40:54.950Z,77.96
2023-05-15T18:43:21.882Z,78.14
2023-05-15T18:45:48.647Z,77.79
2023-05-15T18:48:15.328Z,78.28
2023-05-15T18:50:42.175Z,77.96
2023-05-15T18:53:08.814Z,77.50
2023-05-15T18:55:35.471Z,77.85
2023-05-15T18:58:02.086Z,78.69
2023-05-15T19:00:37.846Z,77.96
2023-05-15T19:03:06.106Z,78.70
2023-05-15T19:05:34.399Z,78.56
2023-05-15T19:08:01.913Z,78.51
2023-05-15T19:10:29.817Z,78.81
2023-05-15T19:12:57.470Z,79.36
2023-05-15T19:15:25.251Z,79.55
2023-05-15T19:17:52.108Z,80.01
2023-05-15T19:20:19.083Z,79.86
2023-05-15T19:22:46.715Z,80.18
2023-05-15T19:25:13.491Z,80.14
2023-05-15T19:27:40.476Z,81.37
2023-05-15T19:30:07.919Z,81.85
2023-05-15T19:32:34.999Z,83.25
2023-05-15T19:35:02.185Z,83.20
2023-05-15T19:37:29.181Z,83.73
2023-05-15T19:39:56.873Z,84.23
2023-05-15T19:42:23.690Z,85.54
2023-05-15T19:44:50.744Z,85.24
2023-05-15T19:47:17.440Z,86.14
2023-05-15T19:49:44.071Z,86.90
2023-05-15T19:52:10.798Z,87.56
2023-05-15T19:54:37.336Z,87.61
2023-05-15T19:57:04.064Z,87.14
2023-05-15T19:59:30.789Z,87.68
2023-05-15T20:01:57.453Z,88.47
2023-05-15T20:04:24.181Z,88.10
2023-05-15T20:06:50.827Z,88.64
2023-05-15T20:09:17.506Z,88.16
2023-05-15T20:11:45.343Z,88.32
2023-05-15T20:14:12.055Z,88.38
2023-05-15T20:16:38.725Z,87.98
2023-05-15T20:19:06.059Z,87.89
2023-05-15T20:21:32.736Z,87.93
2023-05-15T20:23:59.379Z,87.91
2023-05-15T20:26:26.326Z,87.00
2023-05-15T20:28:53.063Z,86.79
2023-05-15T20:31:19.780Z,86.97
2023-05-15T20:33:46.635Z,86.78
2023-05-15T20:36:14.327Z,86.09
2023-05-15T20:38:41.587Z,85.87
2023-05-15T20:41:08.316Z,85.79
2023-05-15T20:43:34.874Z,85.81
2023-05-15T20:46:01.798Z,86.09
2023-05-15T20:48:28.567Z,85.92
2023-05-15T20:50:56.300Z,85.85
2023-05-15T20:53:23.053Z,85.22
2023-05-15T20:55:49.825Z,85.16
2023-05-15T20:58:16.414Z,85.82
2023-05-15T21:00:43.118Z,85.50
2023-05-15T21:03:11.192Z,85.70
2023-05-15T21:05:37.887Z,85.05
2023-05-15T21:08:04.530Z,85.19
2023-05-15T21:10:31.122Z,85.63
2023-05-15T21:12:59.281Z,85.32
2023-05-15T21:15:26.322Z,84.95
2023-05-15T21:17:52.969Z,85.18
2023-05-15T21:20:19.584Z,85.18
2023-05-15T21:22:46.159Z,86.45
2023-05-15T21:25:12.794Z,86.45
2023-05-15T21:27:39.382Z,86.28
2023-05-15T21:30:06.641Z,85.53
2023-05-15T21:32:33.251Z,85.65
2023-05-15T21:34:59.816Z,85.57
2023-05-15T21:37:27.290Z,85.11
2023-05-15T21:39:54.023Z,85.23
2023-05-15T21:42:20.889Z,85.51
2023-05-15T21:44:47.427Z,85.77
2023-05-15T21:47:14.037Z,85.79
2023-05-15T21:49:40.565Z,86.24
2023-05-15T21:52:07.047Z,86.51
2023-05-15T21:54:33.559Z,86.24
2023-05-15T21:57:00.151Z,86.52
2023-05-15T21:59:26.727Z,87.15
2023-05-15T22:01:53.390Z,87.98
2023-05-15T22:04:19.966Z,88.09
2023-05-15T22:06:46.563Z,87.62
2023-05-15T22:09:13.075Z,88.68
2023-05-15T22:11:39.659Z,88.27
2023-05-15T22:14:06.423Z,88.45
2023-05-15T22:16:33.256Z,88.61
2023-05-15T22:18:59.974Z,89.22
2023-05-15T22:21:26.788Z,89.42
2023-05-15T22:23:53.372Z,88.81
2023-05-15T22:26:20.762Z,89.34
2023-05-15T22:28:47.824Z,88.87
2023-05-15T22:31:14.455Z,90.10
2023-05-15T22:33:41.018Z,89.94
2023-05-15T22:36:07.786Z,91.09
2023-05-15T22:38:34.367Z,91.94
2023-05-15T22:41:00.895Z,92.07
2023-05-15T22:43:27.478Z,92.44
2023-05-15T22:45:54.312Z,92.32
2023-05-15T22:48:21.091Z,92.49
2023-05-15T22:50:47.730Z,92.27
2023-05-15T22:53:14.397Z,92.78
2023-05-15T22:55:41.530Z,93.75
2023-05-15T22:58:08.079Z,93.10
2023-05-15T23:00:34.751Z,93.18
2023-05-15T23:03:01.529Z,93.27
2023-05-15T23:05:28.285Z,93.80
2023-05-15T23:07:55.256Z,94.01
2023-05-15T23:10:22.093Z,94.05
2023-05-15T23:12:48.648Z,94.30
2023-05-15T23:15:15.197Z,94.65
2023-05-15T23:17:41.767Z,94.11
2023-05-15T23:20:11.212Z,93.45
2023-05-15T23:22:38.742Z,93.08
2023-05-15T23:25:07.368Z,93.03
2023-05-15T23:27:34.003Z,93.44
2023-05-15T23:30:00.810Z,94.09
2023-05-15T23:32:27.363Z,94.51
2023-05-15T23:34:54.550Z,94.19
2023-05-15T23:37:21.308Z,94.34
2023-05-15T23:39:48.063Z,94.54
2023-05-15T23:42:15.152Z,94.61
2023-05-15T23:44:41.685Z,95.32
2023-05-15T23:47:08.696Z,94.72
2023-05-15T23:49:35.992Z,94.40
2023-05-15T23:52:02.663Z,94.60
2023-05-15T23:54:29.216Z,94.46
2023-05-15T23:56:55.788Z,94.54
2023-05-15T23:59:22.283Z,94.97
